Terminal Aerodrome Forecast
Issued by NWS

Home | Current Version | Previous Version | Text Only | Print | Product List | Glossary On
Versions: 1 2 3 4 5 6 7 8 9 10 11 12 13 14 15 16 17 18 19 20 21
000
FTUS41 KBGM 050546
TAFELM
TAF
KELM 050546Z 0506/0606 VRB03KT 1/2SM FG VV002
      TEMPO 0511/0513 2SM BR SCT002
     FM051300 VRB03KT P6SM SKC
      TEMPO 0513/0514 4SM BR SCT005
     FM051500 31005KT P6SM FEW050 BKN250
     FM060000 VRB03KT P6SM BKN250=

USA.gov is the U.S. government's official web portal to all federal, state and local government web resources and services.